This is the latest recevied weather packets stored in our database for station/object KJ5IIV. If no packets are shown the sender has not sent any weather packets the latest 10 day(s).
| Time | Temp. | Humidity | Pressure | Rain* | Wind** | Luminosity | Snow |
|---|---|---|---|---|---|---|---|
| 1777669767 | 16.11° C | 69% | 1014.6 hPa | 0 mm | - | 161 W/m² | - |
| 1777669464 | 16.11° C | 69% | 1014.9 hPa | 0 mm | - | 188 W/m² | - |
| 1777669161 | 16.11° C | 69% | 1015.1 hPa | 0 mm | - | 147 W/m² | - |
| 1777668858 | 16.11° C | 70% | 1015.2 hPa | 0 mm | - | 144 W/m² | - |
| 1777668555 | 16.11° C | 70% | 1015.2 hPa | 0 mm | - | 155 W/m² | - |
| 1777668250 | 16.11° C | 68% | 1015.3 hPa | 0 mm | - | 149 W/m² | - |
| 1777667946 | 15.56° C | 69% | 1015.6 hPa | 0 mm | - | 128 W/m² | - |
| 1777667644 | 16.11° C | 67% | 1015.6 hPa | 0 mm | - | 122 W/m² | - |
| 1777667341 | 16.11° C | 68% | 1015.4 hPa | 0 mm | - | 138 W/m² | - |
| 1777667038 | 16.11° C | 66% | 1015.1 hPa | 0 mm | - | 176 W/m² | - |
| 1777666735 | 16.67° C | 63% | 1015 hPa | 0 mm | - | 254 W/m² | - |
| 1777666432 | 16.67° C | 65% | 1014.5 hPa | 0 mm | - | 409 W/m² | - |
| 1777666128 | 16.11° C | 64% | 1014.6 hPa | 0 mm | - | 408 W/m² | - |
| 1777665825 | 16.11° C | 65% | 1014.2 hPa | 0 mm | - | 319 W/m² | - |
| 1777665523 | 16.11° C | 66% | 1014.1 hPa | 0 mm | - | 277 W/m² | - |
| 1777665219 | 16.67° C | 66% | 1014.1 hPa | 0 mm | - | 243 W/m² | - |
| 1777664915 | 17.78° C | 63% | 1013.9 hPa | 0 mm | - | 486 W/m² | - |
| 1777664611 | 17.22° C | 67% | 1013.9 hPa | 0 mm | - | 748 W/m² | - |
| 1777664307 | 17.22° C | 70% | 1013.9 hPa | 0 mm | - | 970 W/m² | - |
| 1777664006 | 16.67° C | 69% | 1014.2 hPa | 0 mm | - | 929 W/m² | - |
| 1777663703 | 16.67° C | 69% | 1014.4 hPa | 0 mm | - | 905 W/m² | - |
| 1777663400 | 16.11° C | 71% | 1014.3 hPa | 0 mm | - | 904 W/m² | - |
| 1777663097 | 16.11° C | 73% | 1014.5 hPa | 0 mm | - | 600 W/m² | - |
| 1777662795 | 15.56° C | 74% | 1014.5 hPa | 0 mm | - | 704 W/m² | - |
| 1777662491 | 15.56° C | 75% | 1014.9 hPa | 0 mm | - | 741 W/m² | - |
* Rain latest hour (hover to see other rain measurements)
** Current wind speed in m/s (hover to see current wind gust speed)